• Join FlightAware (Why Join?)
  • Login
  • US Flag 
07:19AM EDT


 

Airport Tracker/Info


-or-


 

Live Flight TrackerFlight Track Log ✈ AIP5031 ✈ 11-Oct-2013 ✈ KMSO - KBIL

Flight Track Log - Related Links

Times and Time Zones

All times are in EDT time to prevent confusion due to time zone crossing. See the AIP5031 flight status page for this flight to view local times or setup timezone preferences in your user account.

Time Position Orientation Groundspeed Altitude Reporting Facility
EDT Latitude Longitude Course Direction KTS MPH feet Rate Location/Type
05:19AM 46.9264 -114.1100 106° East 207 238 4,300  Level Salt Lake Center
05:20AM 46.9050 -114.1064 173° South 149 171 6,700 2,160 Climbing Salt Lake Center
05:21AM 46.9011 -114.0494 96° East 147 169 8,700 1,800 Climbing Salt Lake Center
05:22AM 46.8975 -113.9786 94° East 170 196 10,400 1,680 Climbing Salt Lake Center
05:23AM 46.8883 -113.9072 101° East 179 206 12,100 1,440 Climbing Salt Lake Center
05:24AM 46.8225 -113.5534 106° East  Level Estimated
05:24AM 46.8756 -113.8322 104° East 188 216 13,300  Level Salt Lake Center
05:25AM 46.8600 -113.7494 105° East 207 238 14,300 840 Climbing Salt Lake Center
05:26AM 46.8436 -113.6617 105° East 210 242 15,100 360 Climbing Salt Lake Center
05:27AM 46.8239 -113.5686 107° East 239 275 15,100  Level Salt Lake Center
05:28AM 46.8019 -113.4683 108° East 258 297 15,100  Level Salt Lake Center
05:29AM 46.7875 -113.3642 101° East 262 302 15,100 -60 Level Salt Lake Center
05:30AM 46.7647 -113.2669 109° East 263 303 15,000  Descending Salt Lake Center
05:31AM 46.7483 -113.1653 103° East 259 298 15,200  Climbing Salt Lake Center
05:32AM 46.7311 -113.0647 104° East 256 295 15,000  Descending Salt Lake Center
05:33AM 46.7119 -112.9622 105° East 260 299 15,200  Climbing Salt Lake Center
05:34AM 46.6978 -112.8617 102° East 256 295 15,000 -120 Descending Salt Lake Center
05:35AM 46.6789 -112.7614 105° East 258 297 15,000  Level Salt Lake Center
05:36AM 46.6539 -112.6631 110° East 259 298 15,000  Level Salt Lake Center
05:37AM 46.6364 -112.5603 104° East 262 302 15,000  Level Salt Lake Center
05:38AM 46.6200 -112.4586 103° East 260 299 15,100  Climbing Salt Lake Center
05:39AM 46.6042 -112.3564 103° East 260 299 15,100 -60 Level Salt Lake Center
05:40AM 46.5828 -112.2569 107° East 259 298 15,000 -120 Descending Salt Lake Center
05:41AM 46.5569 -112.1617 111° Southeast 255 293 14,900  Descending Salt Lake Center
05:42AM 46.5386 -112.0639 105° East 253 291 15,000  Climbing Salt Lake Center
05:43AM 46.5242 -111.9639 102° East 254 292 15,000  Level Salt Lake Center
05:44AM 46.5094 -111.8644 102° East 254 292 15,100 -60 Climbing Salt Lake Center
05:45AM 46.4903 -111.7669 106° East 253 291 14,900 -60 Descending Salt Lake Center
05:46AM 46.4681 -111.6700 108° East 253 291 15,000 60 Climbing Salt Lake Center
05:47AM 46.4475 -111.5753 107° East 250 288 15,100  Climbing Salt Lake Center
05:48AM 46.4256 -111.4686 107° East 250 288 15,000 -60 Descending Salt Lake Center
05:49AM 46.4092 -111.3775 105° East 250 288 15,000  Level Salt Lake Center
05:50AM 46.3883 -111.2803 107° East 248 285 15,000  Level Salt Lake Center
05:51AM 46.3703 -111.1800 105° East 252 290 15,000  Level Salt Lake Center
05:52AM 46.3483 -111.0831 108° East 250 288 15,100 -60 Climbing Salt Lake Center
05:53AM 46.3286 -110.9839 106° East 251 289 14,900 -120 Descending Salt Lake Center
05:54AM 46.3111 -110.9036 107° East 249 287 14,900  Level Salt Lake Center
05:55AM 46.2889 -110.8061 108° East 252 290 15,000 -60 Climbing Salt Lake Center
05:56AM 46.2692 -110.6939 104° East 252 290 14,800  Descending Salt Lake Center
05:57AM 46.2525 -110.6144 107° East 249 287 15,000  Climbing Salt Lake Center
05:58AM 46.2369 -110.5153 103° East 251 289 14,800  Descending Salt Lake Center
05:59AM 46.2133 -110.4211 110° East 252 290 15,000 60 Climbing Salt Lake Center
06:00AM 46.1958 -110.3222 104° East 252 290 15,000  Level Salt Lake Center
06:01AM 46.1761 -110.2256 106° East 253 291 15,100 -60 Climbing Salt Lake Center
06:02AM 46.1525 -110.1303 110° East 253 291 14,900 -120 Descending Salt Lake Center
06:03AM 46.1292 -110.0381 110° East 250 288 14,900  Level Salt Lake Center
06:04AM 46.1100 -109.9417 106° East 251 289 14,900 -60 Level Salt Lake Center
06:05AM 46.0867 -109.8469 110° East 251 289 14,800  Descending Salt Lake Center
06:06AM 46.0650 -109.7394 106° East 250 288 14,900 60 Climbing Salt Lake Center
06:07AM 46.0408 -109.6389 109° East 248 285 15,000 -120 Climbing Salt Lake Center
06:08AM 46.0233 -109.5464 105° East 243 280 14,700 -540 Descending Salt Lake Center
06:09AM 45.9989 -109.4492 110° East 259 298 14,000 -660 Descending Salt Lake Center
06:10AM 45.9864 -109.3508 100° East 254 292 13,400 -900 Descending Salt Lake Center
06:11AM 45.9617 -109.2508 110° East 268 308 12,200 -1,140 Descending Salt Lake Center
06:12AM 45.9361 -109.1528 111° Southeast 267 307 11,200 -1,080 Descending Salt Lake Center
06:13AM 45.9089 -109.0469 110° East 267 307 10,100 -1,200 Descending Salt Lake Center
06:14AM 45.8894 -108.9453 105° East 267 307 8,900 -1,260 Descending Salt Lake Center
06:15AM 45.8700 -108.8422 105° East 271 312 7,600 -1,260 Descending Salt Lake Center
06:16AM 45.8550 -108.7450 102° East 257 296 6,400 -1,020 Descending Salt Lake Center
06:17AM 45.8433 -108.6522 100° East 244 281 5,600 -720 Descending Salt Lake Center
06:18AM 45.8319 -108.5761 102° East 194 223 5,000 -660 Descending Salt Lake Center
06:19AM 45.8231 -108.5128 101° East 167 192 4,300 -720 Descending Salt Lake Center
06:20AM 45.8078 -108.5447 236° Southwest 99 114 3,600 -720 Descending Salt Lake Center
06:22AM 45.8077 -108.5429 90° East  Level Estimated